Time;durP1;ratioP1;P1;durP2;ratioP2;P2;SDS_P1;SDS_P2;PMS_P1;PMS_P2;Temp;Humidity;BMP_temperature;BMP_pressure;BME280_temperature;BME280_humidity;BME280_pressure;Samples;Min_cycle;Max_cycle;Signal;HPM_P1;HPM_P2
2022/04/14 00:00:25;;;;;;;45.75;23.45;;;;;;;5.51;52.24;99478.69;4000261;88;21059;-85
2022/04/14 00:06:28;;;;;;;48.87;25.17;;;;;;;5.29;54.21;99477.66;3997675;87;21131;-84
2022/04/14 00:12:33;;;;;;;54.95;25.60;;;;;;;5.20;54.25;99481.55;4082716;86;21024;-85
2022/04/14 00:18:34;;;;;;;46.13;24.47;;;;;;;5.12;54.12;99475.02;4086994;85;21018;-85
2022/04/14 00:24:36;;;;;;;45.55;24.75;;;;;;;4.99;54.76;99480.13;4082085;85;21070;-84
2022/04/14 00:30:38;;;;;;;48.28;25.35;;;;;;;4.96;54.96;99475.91;4082031;85;21082;-85
2022/04/14 00:36:40;;;;;;;43.85;22.70;;;;;;;4.83;55.06;99477.72;4077054;85;21066;-85
2022/04/14 00:42:41;;;;;;;53.17;26.15;;;;;;;4.77;55.25;99475.75;4084584;85;21050;-85
2022/04/14 00:48:43;;;;;;;45.48;24.98;;;;;;;4.58;55.83;99473.98;4075563;86;21114;-85
2022/04/14 00:54:44;;;;;;;44.33;23.65;;;;;;;4.60;57.14;99473.08;4080437;85;21501;-84
2022/04/14 01:00:46;;;;;;;53.42;27.30;;;;;;;4.61;57.42;99472.53;4080684;85;21079;-85
2022/04/14 01:06:47;;;;;;;53.40;26.33;;;;;;;4.50;56.71;99473.99;4080942;85;22026;-85
2022/04/14 01:12:49;;;;;;;56.65;24.92;;;;;;;4.33;57.07;99480.81;4084264;85;21090;-85
2022/04/14 01:18:50;;;;;;;47.38;24.18;;;;;;;4.28;57.72;99477.72;4075453;85;21058;-86
2022/04/14 01:24:57;;;;;;;44.85;22.35;;;;;;;4.22;57.96;99476.84;4084964;85;21047;-86
2022/04/14 01:31:00;;;;;;;46.13;21.95;;;;;;;4.31;59.31;99477.63;4084879;86;21048;-85
2022/04/14 01:37:01;;;;;;;47.98;22.93;;;;;;;4.34;59.43;99482.39;4083715;86;21062;-85
2022/04/14 01:43:03;;;;;;;48.05;24.60;;;;;;;4.38;59.12;99488.78;4081568;85;21102;-85
2022/04/14 01:49:05;;;;;;;48.30;24.07;;;;;;;4.27;59.12;99485.63;4083359;86;21119;-85
2022/04/14 01:55:07;;;;;;;46.02;22.75;;;;;;;4.19;60.13;99487.78;4085527;86;21106;-86
2022/04/14 02:01:09;;;;;;;45.45;23.85;;;;;;;4.21;60.07;99477.98;4092050;85;21071;-85
2022/04/14 02:07:10;;;;;;;50.90;23.57;;;;;;;4.06;59.98;99481.16;4088840;85;21066;-85
2022/04/14 02:13:12;;;;;;;47.67;21.68;;;;;;;3.94;60.68;99476.41;4103958;85;21089;-85
2022/04/14 02:19:13;;;;;;;45.90;21.75;;;;;;;3.94;60.52;99478.31;4096925;85;22009;-85
2022/04/14 02:25:14;;;;;;;50.67;24.63;;;;;;;3.79;61.45;99472.81;4095121;85;21112;-85
2022/04/14 02:31:16;;;;;;;44.18;23.40;;;;;;;3.70;60.90;99473.92;4095598;85;21084;-86
2022/04/14 02:37:17;;;;;;;55.73;26.90;;;;;;;3.62;61.99;99467.97;4095810;85;21053;-86
2022/04/14 02:43:18;;;;;;;51.90;25.80;;;;;;;3.67;61.79;99475.36;4090681;85;21966;-85
2022/04/14 02:49:21;;;;;;;55.90;27.30;;;;;;;3.56;62.01;99477.34;4096815;85;21087;-85
2022/04/14 02:55:23;;;;;;;48.40;24.92;;;;;;;3.43;61.90;99472.88;4092760;85;21079;-86
2022/04/14 03:01:25;;;;;;;45.23;23.42;;;;;;;3.30;62.32;99471.91;4086836;85;21098;-85
2022/04/14 03:07:26;;;;;;;45.38;22.35;;;;;;;3.23;62.29;99466.95;4078616;85;21066;-85
2022/04/14 03:13:28;;;;;;;40.30;21.00;;;;;;;3.17;62.88;99474.98;4082281;86;21034;-85
2022/04/14 03:19:29;;;;;;;48.70;24.37;;;;;;;3.08;63.18;99471.46;4071505;85;21129;-85
2022/04/14 03:25:30;;;;;;;54.13;25.25;;;;;;;3.07;63.80;99473.09;4085062;86;21130;-86
2022/04/14 03:31:32;;;;;;;54.88;25.82;;;;;;;2.98;63.92;99464.17;4080791;86;21070;-85
2022/04/14 03:37:34;;;;;;;55.30;25.30;;;;;;;2.90;64.07;99457.63;4081188;86;21087;-86
2022/04/14 03:43:36;;;;;;;56.53;27.07;;;;;;;2.77;64.35;99468.56;4080325;85;21579;-86
2022/04/14 03:49:37;;;;;;;55.90;25.12;;;;;;;2.69;64.91;99467.39;4079367;86;21095;-87
2022/04/14 03:55:38;;;;;;;50.78;23.52;;;;;;;2.62;65.29;99460.84;4082944;85;21062;-86
2022/04/14 04:01:40;;;;;;;55.60;25.45;;;;;;;2.70;66.21;99462.25;4076360;86;21044;-87
2022/04/14 04:07:42;;;;;;;55.33;26.00;;;;;;;2.66;65.81;99471.30;4078911;85;21082;-86
2022/04/14 04:13:44;;;;;;;48.98;24.07;;;;;;;2.57;65.66;99468.55;4084915;85;21029;-86
2022/04/14 04:19:45;;;;;;;67.37;28.15;;;;;;;2.45;65.96;99471.03;4080783;85;20990;-85
2022/04/14 04:25:49;;;;;;;53.78;25.00;;;;;;;2.43;66.21;99465.67;4081383;85;21039;-86
2022/04/14 04:31:50;;;;;;;48.70;24.65;;;;;;;2.53;67.07;99470.83;4077552;85;21107;-86
2022/04/14 04:37:52;;;;;;;61.02;27.10;;;;;;;2.67;67.18;99474.23;4083100;85;21519;-85
2022/04/14 04:43:53;;;;;;;52.10;24.75;;;;;;;2.76;66.39;99469.66;4076271;85;21046;-85
2022/04/14 04:49:55;;;;;;;43.92;21.95;;;;;;;2.93;67.79;99467.81;4082751;86;21031;-85
2022/04/14 04:55:58;;;;;;;49.83;23.95;;;;;;;3.37;68.01;99475.50;4087140;85;21776;-85
2022/04/14 05:02:00;;;;;;;86.08;39.75;;;;;;;3.76;67.91;99476.16;4100879;85;21051;-85
2022/04/14 05:08:02;;;;;;;81.15;36.95;;;;;;;4.13;68.01;99476.07;4094232;84;21066;-86
2022/04/14 05:14:04;;;;;;;101.95;48.02;;;;;;;4.55;67.70;99478.70;4129571;84;21090;-86
2022/04/14 05:20:06;;;;;;;87.37;41.20;;;;;;;4.89;67.49;99481.06;4091974;84;21104;-86
2022/04/14 05:26:11;;;;;;;80.53;37.67;;;;;;;5.21;67.14;99480.41;4088511;84;20996;-86
2022/04/14 05:32:15;;;;;;;72.10;33.85;;;;;;;5.49;66.82;99476.89;4094803;84;21089;-86
2022/04/14 05:38:17;;;;;;;64.22;32.98;;;;;;;5.77;66.72;99475.25;4088330;85;21096;-86
2022/04/14 05:44:19;;;;;;;78.42;33.88;;;;;;;6.07;66.32;99478.70;4105416;84;22060;-86
2022/04/14 05:50:21;;;;;;;80.90;34.13;;;;;;;6.35;65.77;99475.08;4110517;85;21105;-87
2022/04/14 05:56:22;;;;;;;59.85;29.82;;;;;;;6.71;65.58;99477.09;4102992;85;22012;-87
2022/04/14 06:02:24;;;;;;;47.10;23.52;;;;;;;7.11;65.29;99471.80;4104915;85;22052;-86
2022/04/14 06:08:26;;;;;;;38.80;20.60;;;;;;;7.48;64.29;99472.00;4104665;85;21614;-86
2022/04/14 06:14:28;;;;;;;44.23;21.75;;;;;;;7.97;63.89;99466.67;4103849;85;22048;-86
2022/04/14 06:20:31;;;;;;;41.75;19.90;;;;;;;8.53;63.08;99470.19;4104027;85;20992;-86
2022/04/14 06:26:33;;;;;;;36.08;18.67;;;;;;;9.08;62.58;99465.36;4108394;85;21059;-86
2022/04/14 06:32:34;;;;;;;32.93;18.60;;;;;;;9.70;62.19;99465.83;4105256;85;21890;-87
2022/04/14 06:38:36;;;;;;;34.83;17.87;;;;;;;10.11;61.54;99463.81;4104029;85;21111;-86
2022/04/14 06:44:37;;;;;;;43.28;19.55;;;;;;;10.49;60.74;99462.98;4103954;85;21007;-86
2022/04/14 06:50:40;;;;;;;41.45;20.00;;;;;;;10.65;60.51;99459.55;4104910;85;21090;-86
2022/04/14 06:56:41;;;;;;;38.95;20.85;;;;;;;10.83;60.41;99453.25;4102984;85;21099;-86
2022/04/14 07:02:53;;;;;;;35.33;20.02;;;;;;;11.25;59.60;99455.88;4063756;87;21052;-86
2022/04/14 07:08:56;;;;;;;35.73;17.57;;;;;;;11.55;59.26;99451.25;4068712;86;21122;-86
2022/04/14 07:15:00;;;;;;;33.53;17.15;;;;;;;11.71;58.73;99448.36;4067368;86;21134;-86
2022/04/14 07:21:01;;;;;;;33.25;17.80;;;;;;;11.89;58.78;99451.55;4060820;85;21076;-85
2022/04/14 07:27:03;;;;;;;31.60;17.05;;;;;;;11.87;57.97;99453.09;4043352;87;21068;-86
2022/04/14 07:33:05;;;;;;;37.00;18.02;;;;;;;11.91;57.71;99458.03;4058535;87;21095;-86
2022/04/14 07:39:19;;;;;;;32.53;17.45;;;;;;;12.12;57.76;99459.09;4067734;86;21080;-86
2022/04/14 07:45:35;;;;;;;32.50;16.65;;;;;;;12.70;57.26;99444.22;4062976;87;21059;-86
2022/04/14 07:52:02;;;;;;;31.97;17.37;;;;;;;13.59;56.55;99450.07;4089853;86;21067;-86
2022/04/14 07:58:10;;;;;;;32.75;15.32;;;;;;;14.31;55.64;99443.77;4071130;86;21094;-86
2022/04/14 08:04:12;;;;;;;31.87;16.93;;;;;;;15.25;54.66;99448.63;4079809;85;21086;-87
2022/04/14 08:10:14;;;;;;;25.70;14.53;;;;;;;15.92;52.81;99456.23;4083522;85;21357;-85
2022/04/14 08:16:16;;;;;;;26.75;14.30;;;;;;;16.56;53.00;99452.63;4073338;86;21116;-87
2022/04/14 08:22:18;;;;;;;23.62;13.35;;;;;;;17.06;52.52;99446.95;4085549;85;22002;-87
2022/04/14 08:28:19;;;;;;;24.35;12.45;;;;;;;17.42;51.43;99441.30;4081071;86;21126;-86
2022/04/14 08:34:21;;;;;;;20.97;12.18;;;;;;;17.89;50.59;99425.81;4080095;85;21147;-86
2022/04/14 08:40:27;;;;;;;19.67;10.85;;;;;;;18.48;48.86;99428.45;4085049;86;21018;-85
2022/04/14 08:46:29;;;;;;;17.27;8.70;;;;;;;18.79;48.45;99420.30;4083617;85;21085;-86
2022/04/14 08:52:34;;;;;;;19.50;10.65;;;;;;;19.04;46.86;99426.24;4076391;86;21051;-86
2022/04/14 08:58:37;;;;;;;15.05;9.60;;;;;;;19.31;46.50;99422.06;4086415;85;21107;-87
2022/04/14 09:04:42;;;;;;;15.72;7.85;;;;;;;19.65;44.88;99418.46;4083721;86;21076;-87
2022/04/14 09:10:43;;;;;;;14.33;7.05;;;;;;;19.92;43.58;99422.67;4077094;86;21105;-86
2022/04/14 09:16:45;;;;;;;11.63;6.65;;;;;;;20.39;42.84;99410.80;4086951;85;21447;-87
2022/04/14 09:22:52;;;;;;;13.00;5.90;;;;;;;20.84;41.68;99412.38;4083680;86;22279;-86
2022/04/14 09:29:04;;;;;;;9.10;5.42;;;;;;;21.62;40.10;99402.26;4084375;86;21114;-86
2022/04/14 09:35:20;;;;;;;9.23;6.12;;;;;;;22.09;39.92;99390.81;4079373;85;21125;-86
2022/04/14 09:41:40;;;;;;;10.50;5.97;;;;;;;22.87;39.02;99380.84;4083329;86;21067;-86
2022/04/14 09:47:41;;;;;;;10.50;6.05;;;;;;;23.61;37.22;99362.38;4069003;85;21071;-85
2022/04/14 09:53:43;;;;;;;7.90;5.28;;;;;;;24.25;34.25;99349.62;4079491;85;21062;-87
2022/04/14 09:59:44;;;;;;;9.55;4.92;;;;;;;25.05;34.15;99341.41;4084070;85;21080;-87
2022/04/14 10:05:55;;;;;;;8.90;5.67;;;;;;;24.57;33.55;99347.13;4096141;85;21121;-86
2022/04/14 10:11:58;;;;;;;10.13;5.53;;;;;;;24.88;32.57;99346.33;4088903;85;21151;-85
2022/04/14 10:18:14;;;;;;;8.13;5.87;;;;;;;25.68;32.73;99337.89;4099355;85;21066;-85
2022/04/14 10:24:19;;;;;;;9.45;6.12;;;;;;;26.15;30.88;99329.09;4094478;85;21071;-86
2022/04/14 10:30:20;;;;;;;11.45;5.22;;;;;;;25.85;30.05;99318.88;4095946;87;21093;-86
2022/04/14 10:36:22;;;;;;;8.75;5.08;;;;;;;25.19;30.40;99319.80;4095150;85;21039;-86
2022/04/14 10:42:29;;;;;;;9.83;5.72;;;;;;;25.34;30.36;99315.80;4095530;85;21136;-87
2022/04/14 10:48:39;;;;;;;9.18;4.72;;;;;;;25.75;28.35;99307.50;4100398;85;21071;-86
2022/04/14 10:54:59;;;;;;;5.83;4.47;;;;;;;25.95;28.89;99304.21;4094789;87;21070;-86
2022/04/14 11:01:02;;;;;;;6.97;3.80;;;;;;;25.68;28.41;99307.05;4082140;85;21078;-86
2022/04/14 11:07:23;;;;;;;9.10;3.67;;;;;;;25.43;28.27;99296.17;4083423;85;21511;-86
2022/04/14 11:13:56;;;;;;;5.90;3.58;;;;;;;24.84;28.03;99299.52;4081635;85;21068;-86
2022/04/14 11:20:24;;;;;;;8.70;4.00;;;;;;;25.74;27.53;99292.55;4083452;86;21149;-87
2022/04/14 11:26:38;;;;;;;7.70;4.15;;;;;;;26.43;26.60;99288.32;4084645;85;21625;-86
2022/04/14 11:32:41;;;;;;;6.08;4.28;;;;;;;25.71;25.62;99277.46;4082605;86;21040;-86
2022/04/14 11:39:01;;;;;;;5.25;3.85;;;;;;;26.58;25.97;99277.94;4081069;85;20967;-86
2022/04/14 11:45:03;;;;;;;8.45;4.22;;;;;;;26.97;25.46;99264.19;4082933;85;22026;-86
2022/04/14 11:51:05;;;;;;;7.53;4.72;;;;;;;26.87;25.20;99255.04;4083789;86;21059;-87
2022/04/14 11:57:13;;;;;;;8.25;4.67;;;;;;;26.98;24.23;99256.68;4084033;86;21106;-86
2022/04/14 12:03:16;;;;;;;6.97;4.30;;;;;;;26.72;25.03;99257.64;4099580;85;21083;-85
2022/04/14 12:09:21;;;;;;;8.08;5.58;;;;;;;26.48;25.62;99244.17;4106879;85;21055;-86
2022/04/14 12:15:48;;;;;;;11.57;5.47;;;;;;;26.44;24.69;99241.53;4105024;85;21022;-86
2022/04/14 12:22:01;;;;;;;7.47;5.17;;;;;;;25.93;25.18;99235.19;4104825;85;21096;-86
2022/04/14 12:28:04;;;;;;;10.48;4.85;;;;;;;25.48;24.72;99224.84;4106200;85;21040;-86
2022/04/14 12:34:09;;;;;;;10.00;5.42;;;;;;;25.16;24.17;99217.08;4105237;85;21506;-87
2022/04/14 12:40:17;;;;;;;11.68;5.10;;;;;;;24.96;25.25;99210.38;4104447;85;21051;-87
2022/04/14 12:46:41;;;;;;;11.38;6.67;;;;;;;25.00;25.42;99203.99;4102717;85;21925;-86
2022/04/14 12:52:55;;;;;;;13.88;7.62;;;;;;;24.92;24.92;99197.93;4090019;85;21110;-87
2022/04/14 12:59:18;;;;;;;8.85;5.97;;;;;;;24.59;25.82;99199.13;4097076;85;21121;-86
2022/04/14 13:05:24;;;;;;;8.80;5.95;;;;;;;24.56;25.89;99183.27;4075846;86;21120;-86
2022/04/14 13:11:46;;;;;;;13.58;6.90;;;;;;;24.73;25.61;99168.36;4065056;86;21629;-86
2022/04/14 13:17:48;;;;;;;15.10;7.72;;;;;;;24.81;26.50;99156.27;4083618;85;21130;-86
2022/04/14 13:23:50;;;;;;;14.43;7.40;;;;;;;24.98;26.31;99158.90;4076499;86;21558;-87
2022/04/14 13:29:51;;;;;;;11.08;7.28;;;;;;;24.86;26.30;99146.60;4079776;86;21863;-87
2022/04/14 13:35:53;;;;;;;11.03;6.17;;;;;;;24.60;26.77;99134.89;4071434;86;21059;-86
2022/04/14 13:41:57;;;;;;;12.43;6.42;;;;;;;24.46;26.64;99129.16;4077531;85;21032;-86
2022/04/14 13:47:59;;;;;;;13.32;6.85;;;;;;;24.27;26.77;99124.77;4078334;85;21097;-86
2022/04/14 13:54:04;;;;;;;10.58;5.87;;;;;;;24.17;27.12;99115.58;4071744;86;21584;-86
2022/04/14 14:00:07;;;;;;;8.88;5.55;;;;;;;24.20;27.22;99113.86;4085823;85;21052;-86
2022/04/14 14:06:09;;;;;;;9.15;4.95;;;;;;;24.36;27.50;99115.77;4025396;87;21056;-86
2022/04/14 14:12:10;;;;;;;8.50;5.12;;;;;;;24.23;27.29;99107.34;3957097;88;21636;-86
2022/04/14 14:18:13;;;;;;;12.75;5.50;;;;;;;24.24;27.44;99095.69;4029214;87;21147;-85
2022/04/14 14:24:15;;;;;;;8.50;4.90;;;;;;;24.41;27.35;99101.17;3999404;87;21991;-87
2022/04/14 14:30:27;;;;;;;9.15;5.22;;;;;;;24.13;27.43;99101.59;3958162;88;21099;-86
2022/04/14 14:36:29;;;;;;;8.73;4.37;;;;;;;23.91;27.32;99100.27;3953658;88;21114;-86
2022/04/14 14:42:30;;;;;;;8.70;4.53;;;;;;;23.79;27.23;99099.75;4015559;87;21597;-86
2022/04/14 14:48:33;;;;;;;13.08;4.67;;;;;;;23.70;27.17;99088.55;4015633;87;21058;-86
2022/04/14 14:54:34;;;;;;;8.28;5.40;;;;;;;23.61;27.58;99086.34;4012965;87;21090;-86
2022/04/14 15:00:36;;;;;;;9.65;4.80;;;;;;;23.65;27.54;99081.40;4005171;87;21028;-86
2022/04/14 15:06:42;;;;;;;6.87;4.08;;;;;;;23.55;27.55;99082.59;4004815;87;21043;-85
2022/04/14 15:12:44;;;;;;;6.83;4.07;;;;;;;23.16;27.70;99070.89;3999694;87;21055;-86
2022/04/14 15:18:45;;;;;;;8.75;4.60;;;;;;;23.16;27.70;99070.89;4022756;87;21097;-86
2022/04/14 15:24:48;;;;;;;11.30;4.17;;;;;;;23.09;27.84;99077.37;4000464;88;21012;-85
2022/04/14 15:30:52;;;;;;;6.22;4.65;;;;;;;22.95;27.96;99070.92;3989031;87;21130;-86
2022/04/14 15:36:53;;;;;;;9.80;4.75;;;;;;;22.82;28.17;99064.02;3980067;87;21133;-86
2022/04/14 15:42:54;;;;;;;8.65;4.35;;;;;;;22.64;28.28;99061.12;3992518;87;21035;-86
2022/04/14 15:49:01;;;;;;;7.55;4.58;;;;;;;22.54;28.44;99069.24;4027038;87;21082;-86
2022/04/14 15:55:02;;;;;;;8.90;4.70;;;;;;;22.38;28.51;99066.59;3961821;88;21690;-86
2022/04/14 16:01:03;;;;;;;7.78;4.80;;;;;;;22.20;28.71;99064.27;4081991;85;21893;-86
2022/04/14 16:07:04;;;;;;;6.62;4.22;;;;;;;21.98;28.89;99069.00;4078575;86;21584;-86
2022/04/14 16:13:06;;;;;;;8.20;4.55;;;;;;;21.78;29.25;99069.28;4087971;86;22345;-86
2022/04/14 16:19:07;;;;;;;8.68;4.08;;;;;;;21.58;29.51;99066.69;4094333;87;21074;-86
2022/04/14 16:25:09;;;;;;;13.25;4.72;;;;;;;21.42;29.55;99068.82;4063966;86;21005;-86
2022/04/14 16:31:11;;;;;;;8.85;4.42;;;;;;;21.24;29.79;99069.36;4078335;85;21010;-86
2022/04/14 16:37:12;;;;;;;8.00;4.30;;;;;;;21.07;29.93;99072.67;4087810;86;21081;-86
2022/04/14 16:43:13;;;;;;;8.65;4.42;;;;;;;20.86;30.26;99069.11;4082453;86;21102;-86
2022/04/14 16:49:17;;;;;;;10.05;4.47;;;;;;;20.62;30.49;99071.37;4078478;86;22461;-86
2022/04/14 16:55:19;;;;;;;9.80;4.37;;;;;;;20.42;30.83;99072.14;4080929;86;21052;-86
2022/04/14 17:01:21;;;;;;;11.00;4.35;;;;;;;20.20;31.13;99075.32;4087122;85;21026;-86
2022/04/14 17:07:22;;;;;;;9.53;5.62;;;;;;;19.92;31.47;99074.62;4083968;85;21074;-86
2022/04/14 17:13:24;;;;;;;10.15;5.53;;;;;;;19.63;31.89;99075.92;4085347;85;21044;-85
2022/04/14 17:19:29;;;;;;;14.25;6.30;;;;;;;19.41;32.29;99077.64;4085833;85;21094;-85
2022/04/14 17:25:30;;;;;;;12.93;7.20;;;;;;;19.14;32.72;99086.73;4073542;85;21655;-86
2022/04/14 17:31:31;;;;;;;22.73;12.60;;;;;;;18.92;33.09;99091.80;4064822;86;21377;-85
2022/04/14 17:44:00;;;;;;;18.93;8.67;;;;;;;18.26;34.26;99100.18;4089186;86;21058;-86
2022/04/14 17:50:04;;;;;;;18.42;8.95;;;;;;;17.54;35.15;99107.91;4091539;85;21056;-86
2022/04/14 17:56:06;;;;;;;32.70;12.70;;;;;;;17.20;35.61;99119.81;4085887;85;21006;-86
2022/04/14 18:02:11;;;;;;;22.45;11.45;;;;;;;16.97;36.01;99126.64;4086195;85;21080;-86
2022/04/14 18:08:12;;;;;;;21.70;12.43;;;;;;;16.70;36.83;99136.03;4095627;85;21054;-85
2022/04/14 18:14:13;;;;;;;31.97;15.95;;;;;;;16.12;37.63;99129.29;4035229;85;21054;-85
2022/04/14 18:20:16;;;;;;;32.58;18.37;;;;;;;15.62;38.35;99129.70;4100451;85;21094;-86
2022/04/14 18:26:17;;;;;;;35.13;20.43;;;;;;;15.31;39.27;99138.94;4100539;85;21050;-86
2022/04/14 18:32:21;;;;;;;32.93;18.20;;;;;;;15.14;40.82;99143.92;4090875;85;21045;-86
2022/04/14 18:38:48;;;;;;;29.57;19.40;;;;;;;15.01;41.53;99157.19;4093365;85;21129;-86
2022/04/14 18:44:50;;;;;;;46.53;24.55;;;;;;;14.71;41.79;99161.03;4087173;85;21031;-85
2022/04/14 18:50:52;;;;;;;53.68;28.40;;;;;;;14.35;42.12;99164.45;4099570;85;21088;-85
2022/04/14 18:56:54;;;;;;;48.38;26.68;;;;;;;14.09;43.08;99159.34;4096989;85;21022;-85
2022/04/14 19:02:56;;;;;;;45.95;25.15;;;;;;;13.80;43.44;99151.66;4108993;85;21085;-85
2022/04/14 19:08:58;;;;;;;54.38;31.12;;;;;;;13.41;43.88;99156.32;4108767;85;21117;-86
2022/04/14 19:14:59;;;;;;;57.67;29.37;;;;;;;13.16;44.70;99160.96;4121357;85;21022;-85
2022/04/14 19:21:00;;;;;;;42.17;22.13;;;;;;;12.96;45.42;99165.76;4074005;86;21028;-86
2022/04/14 19:27:07;;;;;;;33.40;18.12;;;;;;;12.68;45.90;99160.13;4119919;85;20996;-85
2022/04/14 19:33:09;;;;;;;31.48;17.10;;;;;;;12.21;46.60;99170.05;4136808;85;20994;-85
2022/04/14 19:39:25;;;;;;;31.90;18.55;;;;;;;12.01;47.62;99158.33;4090357;84;21049;-86
2022/04/14 19:45:28;;;;;;;31.55;16.80;;;;;;;12.01;48.43;99170.67;4134244;85;20998;-85
2022/04/14 19:51:29;;;;;;;46.68;22.95;;;;;;;11.93;49.23;99181.38;4119948;85;21120;-85
2022/04/14 19:57:31;;;;;;;57.65;30.40;;;;;;;11.55;50.13;99175.71;4115057;83;21595;-86
2022/04/14 20:03:54;;;;;;;69.22;38.70;;;;;;;11.51;50.34;99183.09;4100601;84;21058;-86
2022/04/14 20:10:05;;;;;;;67.37;35.83;;;;;;;11.85;52.12;99178.37;4082123;85;21032;-86
2022/04/14 20:16:06;;;;;;;70.25;39.18;;;;;;;11.91;51.09;99183.13;4082833;85;21078;-86
2022/04/14 20:22:08;;;;;;;64.85;36.03;;;;;;;11.72;52.77;99183.92;4015888;87;21085;-85
2022/04/14 20:28:09;;;;;;;77.05;40.85;;;;;;;11.57;52.83;99191.78;3995531;87;21146;-85
2022/04/14 20:34:12;;;;;;;72.17;39.20;;;;;;;11.34;52.75;99196.63;3984040;88;21702;-83
2022/04/14 20:40:13;;;;;;;73.07;38.40;;;;;;;11.03;53.26;99193.71;3986564;87;21098;-85
2022/04/14 20:46:18;;;;;;;68.95;41.42;;;;;;;10.92;54.03;99201.00;3988392;88;21029;-86
2022/04/14 20:52:22;;;;;;;67.72;37.13;;;;;;;10.71;53.82;99199.37;4077727;86;21082;-85
2022/04/14 20:58:26;;;;;;;77.75;41.65;;;;;;;10.44;54.84;99204.64;4079112;85;21074;-85
2022/04/14 21:04:27;;;;;;;72.32;41.23;;;;;;;10.26;55.10;99209.04;4084411;85;21142;-85
2022/04/14 21:10:29;;;;;;;74.37;38.60;;;;;;;10.03;55.68;99205.52;4091426;85;21687;-85
2022/04/14 21:16:30;;;;;;;77.85;43.35;;;;;;;9.82;56.16;99209.28;4091770;85;21054;-85
2022/04/14 21:22:33;;;;;;;82.22;44.30;;;;;;;9.67;56.88;99206.86;4099554;85;21561;-85
2022/04/14 21:28:39;;;;;;;73.83;41.90;;;;;;;9.51;57.19;99202.06;4096978;85;21634;-85
2022/04/14 21:34:41;;;;;;;56.60;32.93;;;;;;;9.26;57.64;99202.17;4092142;85;21082;-85
2022/04/14 21:40:42;;;;;;;71.22;41.60;;;;;;;9.15;59.01;99209.37;4088460;85;21033;-85
2022/04/14 21:46:43;;;;;;;78.72;41.85;;;;;;;9.10;58.94;99209.08;4091362;85;21125;-85
2022/04/14 21:52:45;;;;;;;65.97;37.70;;;;;;;8.90;59.38;99202.61;4097584;85;21566;-85
2022/04/14 21:58:46;;;;;;;61.30;34.20;;;;;;;8.74;59.97;99206.77;4093275;85;21106;-85
2022/04/14 22:04:48;;;;;;;62.98;34.33;;;;;;;8.62;60.42;99208.27;4081334;85;21603;-85
2022/04/14 22:10:51;;;;;;;76.50;38.88;;;;;;;8.66;61.09;99204.25;4069250;86;21536;-85
2022/04/14 22:16:52;;;;;;;75.47;39.27;;;;;;;8.60;61.17;99203.73;4073788;86;21042;-86
2022/04/14 22:22:56;;;;;;;68.72;36.75;;;;;;;8.48;61.44;99197.03;4067693;86;21009;-85
2022/04/14 22:28:57;;;;;;;66.70;34.98;;;;;;;8.30;62.06;99197.78;4070348;86;21915;-86
2022/04/14 22:35:23;;;;;;;56.73;32.28;;;;;;;8.35;62.44;99188.73;4070474;86;22141;-86
2022/04/14 22:41:24;;;;;;;63.98;33.67;;;;;;;8.51;63.15;99188.14;4074209;86;21641;-85
2022/04/14 22:47:26;;;;;;;67.95;33.98;;;;;;;8.63;63.33;99188.59;4072357;86;21067;-86
2022/04/14 22:53:27;;;;;;;78.17;38.20;;;;;;;8.72;63.53;99179.03;4072983;86;21562;-86
2022/04/14 22:59:28;;;;;;;74.00;38.48;;;;;;;8.57;62.70;99180.45;4068738;86;21094;-86
2022/04/14 23:05:30;;;;;;;80.03;40.35;;;;;;;8.52;63.65;99175.30;4072554;85;21054;-85
2022/04/14 23:11:49;;;;;;;82.05;40.52;;;;;;;8.55;64.13;99170.48;4080409;85;21031;-86
2022/04/14 23:17:52;;;;;;;80.50;40.05;;;;;;;8.57;64.32;99176.36;4080313;85;21014;-86
2022/04/14 23:23:54;;;;;;;76.82;41.73;;;;;;;8.58;64.71;99166.45;4084543;86;21024;-85
2022/04/14 23:29:55;;;;;;;77.92;41.60;;;;;;;8.63;65.05;99164.81;4079177;85;21087;-86
2022/04/14 23:36:05;;;;;;;76.10;40.55;;;;;;;8.64;65.08;99162.31;4083970;86;21054;-85
2022/04/14 23:42:04;;;;;;;;;;;;;;;8.68;64.99;99159.07;4088421;86;22041;-85
2022/04/14 23:48:10;;;;;;;67.78;37.48;;;;;;;8.70;66.29;99161.44;4073933;85;20190;-86
2022/04/14 23:54:44;;;;;;;51.13;27.93;;;;;;;8.77;65.22;99158.88;4081406;85;21384;-86
